Hartsfield Jackson Atlanta International Airport
KATL : now visible

Airfield :











YOU CAN JOIN US ON...

 
LOGIN :

Register | Disclaimer

   EN    FR    IT 

 









Legend :    VFR   Marginal VFR   IFR   Intensive IFR   Very Intensive IFR
Visi :
Ceiling :
>= 8 km
>= 3000ft
5 to 8 km
1000 to 3000 ft
1500m to 5 km
500 to 1000 ft
800 to 1500m
200 to 500 ft
< 800m
< 200 ft
Symbols :   Thunderstorms  Fog  Heavy snow  Heavy precipitations  Wind > 20 kt






- Airport Elevation : 1026 ft
- IATA code : ATL


KATL - Hartsfield Jackson Atlanta International

CURRENT METAR :
  • 271752Z 26017G26KT 10SM SCT040 SCT250 18/08 A2981 RMK AO2 PK WND 27031/1716 SLP090 T01830083 10189 20172 50002

EXPIRED METARs :
  • 271652Z 26014G27KT 10SM SCT033 18/09 A2981 RMK AO2 PK WND 28027/1652 SLP092 T01830094
  • 271552Z 25016G24KT 10SM FEW030 FEW250 18/09 A2981 RMK AO2 SLP090 T01780089

TAF KATL
Valid from the 27 at 18:00 until the 29 at 00:00 UTC


271724Z 2718/2824 25015G25KT P6SM BKN035 WS020/21030KT
FM272300 25008KT P6SM FEW035
FM280500 27007KT P6SM BKN025
FM281400 30008KT P6SM SCT035
FM281800 29006KT P6SM SKC
KZTL FIR / North America



MET'MAP, your aeronautical weather chart ! - Copyright ORBIFLY December 2007 - Disclaimer

ORBIFLY MET'MAP TEAM :

Programming & Development : Alexandra Zaïnal
Original concept : Baudouin d'Aumeries
Technical & hardware support : Manuel Goepfert
Assistance : Marc-Olivier Méhu




SOURCES & CREDITS :

   NOAA       Earth
Advisory